createdAt,value
2018-08-04T19:37:38.464Z,26.40
2018-08-04T19:40:09.732Z,26.40
2018-08-04T19:42:41.830Z,26.30
2018-08-04T19:45:12.606Z,26.30
2018-08-04T19:47:45.841Z,26.20
2018-08-04T19:50:16.806Z,26.00
2018-08-04T19:52:48.110Z,26.00
2018-08-04T19:55:23.649Z,26.00
2018-08-04T19:57:55.394Z,25.90
2018-08-04T20:00:27.036Z,25.80
2018-08-04T20:02:58.180Z,25.80
2018-08-04T20:05:30.787Z,25.70
2018-08-04T20:08:01.878Z,25.60
2018-08-04T20:10:33.095Z,25.60
2018-08-04T20:13:04.788Z,25.50
2018-08-04T20:15:36.233Z,25.50
2018-08-04T20:18:08.114Z,25.40
2018-08-04T20:20:40.005Z,25.40
2018-08-04T20:23:11.391Z,25.40
2018-08-04T20:25:46.567Z,25.40
2018-08-04T20:28:18.763Z,25.30
2018-08-04T20:30:50.262Z,25.30
2018-08-04T20:33:21.879Z,25.20
2018-08-04T20:35:53.010Z,25.20
2018-08-04T20:38:24.704Z,25.10
2018-08-04T20:40:56.755Z,25.00
2018-08-04T20:43:29.095Z,24.90
2018-08-04T20:46:01.807Z,24.90
2018-08-04T20:48:32.877Z,24.80
2018-08-04T20:51:04.130Z,24.80
2018-08-04T20:53:35.154Z,24.70
2018-08-04T20:56:12.121Z,24.60
2018-08-04T20:58:43.837Z,24.60
2018-08-04T21:01:25.450Z,24.60
2018-08-04T21:04:00.149Z,24.50
2018-08-04T21:06:31.857Z,24.40
2018-08-04T21:09:03.069Z,24.30
2018-08-04T21:11:42.579Z,24.30
2018-08-04T21:14:19.800Z,24.20
2018-08-04T21:16:58.060Z,24.20
2018-08-04T21:19:33.738Z,24.10
2018-08-04T21:22:04.995Z,24.00
2018-08-04T21:24:42.408Z,24.00
2018-08-04T21:27:13.401Z,23.90
2018-08-04T21:32:19.110Z,23.80
2018-08-04T21:34:50.057Z,23.80
2018-08-04T21:37:24.940Z,23.80
2018-08-04T21:39:55.828Z,23.70
2018-08-04T21:42:26.872Z,23.70
2018-08-04T21:47:56.102Z,23.70
2018-08-04T21:50:27.012Z,23.60
2018-08-04T21:52:57.882Z,23.60
2018-08-04T21:55:29.011Z,23.50
2018-08-04T21:57:59.550Z,23.50
2018-08-04T22:00:47.736Z,23.40
2018-08-04T22:03:18.798Z,23.40
2018-08-04T22:05:50.405Z,23.30
2018-08-04T22:08:34.420Z,23.20
2018-08-04T22:11:06.587Z,23.20
2018-08-04T22:13:44.960Z,23.10
2018-08-04T22:16:17.288Z,23.00
2018-08-04T22:18:48.694Z,23.00
2018-08-04T22:21:20.081Z,23.00
2018-08-04T22:23:54.850Z,22.90
2018-08-04T22:26:25.909Z,22.90
2018-08-04T22:28:56.557Z,22.90
2018-08-04T22:31:30.837Z,22.80
2018-08-04T22:34:01.943Z,22.80
2018-08-04T22:36:33.196Z,22.70
2018-08-04T22:39:04.870Z,22.70
2018-08-04T22:41:35.457Z,22.60
2018-08-04T22:44:06.389Z,22.60
2018-08-04T22:46:37.010Z,22.60
2018-08-04T22:49:08.475Z,22.60
2018-08-04T22:51:43.205Z,22.50
2018-08-04T22:54:14.014Z,22.40
2018-08-04T22:56:45.915Z,22.40
2018-08-04T22:59:17.252Z,22.40
2018-08-04T23:01:48.817Z,22.40
2018-08-04T23:06:51.057Z,22.40
2018-08-04T23:09:22.483Z,22.40
2018-08-04T23:11:53.284Z,22.30
2018-08-04T23:14:25.088Z,22.20
2018-08-04T23:16:56.703Z,22.20
2018-08-04T23:19:31.587Z,22.20
2018-08-04T23:22:03.010Z,22.30
2018-08-04T23:24:34.549Z,22.20
2018-08-04T23:27:06.506Z,22.20
2018-08-04T23:29:38.099Z,22.20
2018-08-04T23:32:11.906Z,22.20
2018-08-04T23:34:46.747Z,22.10
2018-08-04T23:37:18.214Z,22.10
2018-08-04T23:39:58.440Z,22.00
2018-08-04T23:42:29.578Z,22.00
2018-08-04T23:45:00.484Z,21.90
2018-08-04T23:47:32.335Z,21.80
2018-08-04T23:50:04.277Z,21.70
2018-08-04T23:52:45.365Z,21.60
2018-08-04T23:55:37.429Z,21.50
2018-08-04T23:58:08.310Z,21.50
